createdAt,value
2018-08-03T00:00:12.265Z,21.25
2018-08-03T00:02:39.486Z,21.25
2018-08-03T00:05:07.234Z,21.22
2018-08-03T00:07:35.030Z,21.14
2018-08-03T00:10:02.901Z,21.08
2018-08-03T00:12:31.155Z,21.09
2018-08-03T00:14:59.227Z,21.05
2018-08-03T00:17:27.674Z,21.00
2018-08-03T00:19:54.976Z,20.98
2018-08-03T00:22:22.187Z,20.94
2018-08-03T00:24:49.368Z,20.98
2018-08-03T00:27:16.600Z,20.96
2018-08-03T00:29:43.787Z,20.94
2018-08-03T00:32:10.932Z,20.91
2018-08-03T00:34:38.228Z,20.87
2018-08-03T00:37:05.730Z,20.87
2018-08-03T00:39:33.466Z,20.84
2018-08-03T00:42:01.016Z,20.79
2018-08-03T00:44:29.243Z,20.76
2018-08-03T00:46:57.170Z,20.73
2018-08-03T00:49:25.416Z,20.72
2018-08-03T00:51:52.607Z,20.71
2018-08-03T00:54:19.720Z,20.70
2018-08-03T00:56:46.968Z,20.63
2018-08-03T00:59:14.081Z,20.57
2018-08-03T01:01:41.189Z,20.53
2018-08-03T01:04:08.542Z,20.51
2018-08-03T01:06:36.391Z,20.47
2018-08-03T01:09:07.923Z,20.43
2018-08-03T01:11:35.936Z,20.42
2018-08-03T01:14:03.460Z,20.40
2018-08-03T01:16:34.546Z,20.40
2018-08-03T01:19:02.047Z,20.35
2018-08-03T01:21:30.031Z,20.32
2018-08-03T01:23:58.574Z,20.28
2018-08-03T01:26:26.694Z,20.23
2018-08-03T01:28:53.919Z,20.19
2018-08-03T01:31:21.063Z,20.16
2018-08-03T01:33:48.163Z,20.14
2018-08-03T01:36:15.291Z,20.13
2018-08-03T01:38:42.550Z,20.09
2018-08-03T01:41:09.744Z,20.02
2018-08-03T01:43:37.186Z,20.01
2018-08-03T01:46:04.940Z,19.96
2018-08-03T01:48:32.406Z,19.94
2018-08-03T01:50:59.950Z,19.94
2018-08-03T01:53:28.349Z,19.91
2018-08-03T01:55:55.890Z,19.88
2018-08-03T01:58:23.050Z,19.85
2018-08-03T02:00:50.655Z,19.83
2018-08-03T02:03:18.847Z,19.83
2018-08-03T02:05:46.027Z,19.87
2018-08-03T02:08:13.174Z,19.88
2018-08-03T02:10:40.287Z,19.87
2018-08-03T02:13:07.578Z,19.86
2018-08-03T02:15:34.986Z,19.82
2018-08-03T02:18:02.359Z,19.81
2018-08-03T02:20:29.973Z,19.79
2018-08-03T02:22:57.892Z,19.79
2018-08-03T02:25:25.516Z,19.76
2018-08-03T02:27:52.685Z,19.78
2018-08-03T02:30:19.896Z,19.79
2018-08-03T02:32:47.035Z,19.82
2018-08-03T02:35:14.184Z,19.91
2018-08-03T02:37:45.157Z,19.98
2018-08-03T02:40:12.341Z,20.02
2018-08-03T02:42:39.503Z,20.09
2018-08-03T02:45:06.884Z,20.13
2018-08-03T02:47:34.537Z,20.18
2018-08-03T02:50:01.979Z,20.20
2018-08-03T02:52:29.841Z,20.26
2018-08-03T02:54:57.590Z,20.29
2018-08-03T02:57:25.026Z,20.33
2018-08-03T02:59:52.516Z,20.35
2018-08-03T03:02:19.687Z,20.38
2018-08-03T03:04:46.821Z,20.44
2018-08-03T03:07:14.337Z,20.46
2018-08-03T03:09:41.442Z,20.49
2018-08-03T03:12:08.756Z,20.54
2018-08-03T03:14:36.407Z,20.52
2018-08-03T03:17:04.110Z,20.57
2018-08-03T03:19:31.798Z,20.55
2018-08-03T03:22:00.125Z,20.59
2018-08-03T03:24:28.247Z,20.66
2018-08-03T03:26:55.748Z,20.65
2018-08-03T03:29:23.034Z,20.64
2018-08-03T03:31:50.203Z,20.65
2018-08-03T03:34:17.334Z,20.65
2018-08-03T03:36:44.493Z,20.60
2018-08-03T03:39:12.955Z,20.62
2018-08-03T03:41:40.147Z,20.66
2018-08-03T03:44:07.419Z,20.65
2018-08-03T03:46:35.419Z,20.58
2018-08-03T03:49:02.936Z,20.59
2018-08-03T03:51:30.518Z,20.58
2018-08-03T03:53:59.166Z,20.66
2018-08-03T03:56:27.665Z,20.67
2018-08-03T03:58:54.960Z,20.66
2018-08-03T04:01:22.119Z,20.66
2018-08-03T04:03:49.339Z,20.70
2018-08-03T04:06:16.472Z,20.69
2018-08-03T04:08:43.600Z,20.73
2018-08-03T04:11:10.868Z,20.74
2018-08-03T04:13:38.245Z,20.72
2018-08-03T04:16:05.834Z,20.81
2018-08-03T04:18:33.445Z,20.84
2018-08-03T04:21:01.036Z,20.90
2018-08-03T04:23:30.755Z,20.95
2018-08-03T04:25:59.254Z,20.98
2018-08-03T04:28:27.746Z,20.87
2018-08-03T04:30:55.079Z,21.03
2018-08-03T04:33:22.274Z,21.04
2018-08-03T04:35:49.450Z,21.02
2018-08-03T04:38:16.612Z,21.02
2018-08-03T04:40:43.761Z,20.99
2018-08-03T04:43:10.937Z,21.04
2018-08-03T04:45:38.256Z,21.00
2018-08-03T04:48:06.041Z,20.88
2018-08-03T04:50:33.588Z,20.84
2018-08-03T04:53:01.151Z,20.84
2018-08-03T04:55:29.066Z,20.80
2018-08-03T04:57:57.830Z,20.89
2018-08-03T05:00:25.553Z,20.87
2018-08-03T05:02:52.730Z,20.85
2018-08-03T05:05:20.260Z,20.81
2018-08-03T05:07:47.624Z,20.85
2018-08-03T05:10:15.036Z,20.76
2018-08-03T05:12:42.828Z,20.72
2018-08-03T05:15:10.334Z,20.67
2018-08-03T05:17:37.700Z,20.63
2018-08-03T05:20:05.639Z,20.64
2018-08-03T05:22:33.097Z,20.70
2018-08-03T05:25:00.905Z,20.78
2018-08-03T05:27:28.389Z,20.87
2018-08-03T05:29:56.358Z,20.92
2018-08-03T05:32:23.603Z,20.97
2018-08-03T05:34:51.286Z,21.02
2018-08-03T05:37:19.008Z,21.14
2018-08-03T05:39:46.328Z,21.19
2018-08-03T05:42:13.540Z,21.24
2018-08-03T05:44:41.177Z,21.34
2018-08-03T05:47:08.332Z,21.43
2018-08-03T05:49:36.939Z,21.51
2018-08-03T05:52:04.380Z,21.66
2018-08-03T05:54:32.334Z,21.88
2018-08-03T05:57:00.633Z,22.06
2018-08-03T05:59:29.104Z,22.30
2018-08-03T06:01:57.511Z,22.62
2018-08-03T06:04:24.914Z,23.03
2018-08-03T06:06:52.655Z,23.28
2018-08-03T06:09:19.796Z,23.56
2018-08-03T06:11:47.892Z,23.70
2018-08-03T06:14:15.892Z,23.85
2018-08-03T06:16:43.205Z,23.61
2018-08-03T06:19:10.627Z,23.72
2018-08-03T06:21:38.393Z,23.69
2018-08-03T06:24:06.839Z,24.00
2018-08-03T06:26:35.313Z,24.15
2018-08-03T06:29:03.107Z,24.21
2018-08-03T06:31:31.047Z,24.37
2018-08-03T06:33:59.693Z,24.25
2018-08-03T06:36:27.139Z,24.49
2018-08-03T06:38:54.295Z,24.23
2018-08-03T06:41:21.853Z,24.44
2018-08-03T06:43:48.995Z,24.44
2018-08-03T06:46:16.134Z,24.72
2018-08-03T06:48:43.527Z,24.95
2018-08-03T06:51:10.928Z,25.22
2018-08-03T06:53:38.652Z,25.27
2018-08-03T06:56:06.420Z,25.48
2018-08-03T06:58:34.211Z,25.50
2018-08-03T07:01:02.066Z,25.43
2018-08-03T07:03:30.128Z,25.62
2018-08-03T07:05:58.035Z,25.59
2018-08-03T07:08:25.841Z,25.45
2018-08-03T07:10:52.984Z,25.59
2018-08-03T07:13:20.174Z,25.60
2018-08-03T07:15:47.343Z,25.44
2018-08-03T07:18:14.500Z,25.63
2018-08-03T07:20:41.929Z,25.61
2018-08-03T07:23:09.027Z,25.60
2018-08-03T07:25:36.524Z,25.86
2018-08-03T07:28:04.314Z,26.19
2018-08-03T07:30:31.626Z,26.29
2018-08-03T07:32:59.530Z,26.03
2018-08-03T07:35:29.733Z,26.09
2018-08-03T07:37:59.329Z,26.28
2018-08-03T07:40:27.249Z,26.44
2018-08-03T07:42:57.548Z,26.72
2018-08-03T07:45:25.637Z,26.96
2018-08-03T07:47:52.836Z,26.87
2018-08-03T07:50:20.032Z,27.07
2018-08-03T07:52:47.428Z,27.10
2018-08-03T07:55:14.631Z,27.35
2018-08-03T07:57:41.931Z,27.54
2018-08-03T08:00:09.225Z,27.41
2018-08-03T08:02:37.016Z,27.76
2018-08-03T08:05:04.515Z,28.04
2018-08-03T08:07:32.267Z,27.81
2018-08-03T08:10:00.250Z,28.03
2018-08-03T08:12:28.850Z,28.29
2018-08-03T08:14:57.969Z,28.33
2018-08-03T08:17:25.946Z,28.54
2018-08-03T08:19:53.175Z,28.75
2018-08-03T08:22:20.325Z,29.03
2018-08-03T08:24:47.447Z,29.52
2018-08-03T08:27:14.762Z,29.51
2018-08-03T08:29:41.894Z,29.64
2018-08-03T08:32:09.134Z,29.61
2018-08-03T08:34:36.847Z,29.29
2018-08-03T08:37:04.821Z,29.52
2018-08-03T08:39:32.626Z,29.65
2018-08-03T08:42:00.463Z,29.63
2018-08-03T08:44:30.390Z,29.33
2018-08-03T08:46:58.791Z,29.57
2018-08-03T08:49:26.858Z,30.16
2018-08-03T08:51:54.180Z,30.36
2018-08-03T08:54:21.344Z,30.06
2018-08-03T08:56:48.492Z,30.31
2018-08-03T08:59:15.635Z,30.77
2018-08-03T09:01:42.807Z,30.64
2018-08-03T09:04:09.940Z,31.00
2018-08-03T09:06:37.162Z,31.31
2018-08-03T09:09:06.952Z,31.25
2018-08-03T09:11:38.759Z,31.56
2018-08-03T09:14:06.078Z,31.13
2018-08-03T09:16:33.671Z,31.40
2018-08-03T09:19:01.659Z,31.64
2018-08-03T09:21:29.424Z,31.89
2018-08-03T09:23:57.118Z,32.15
2018-08-03T09:26:24.462Z,32.22
2018-08-03T09:28:51.872Z,32.35
2018-08-03T09:31:19.516Z,32.26
2018-08-03T09:33:57.288Z,31.87
2018-08-03T09:36:24.509Z,31.77
2018-08-03T09:38:51.859Z,32.26
2018-08-03T09:41:19.125Z,32.48
2018-08-03T09:43:46.428Z,32.61
2018-08-03T09:46:13.697Z,32.19
2018-08-03T09:48:41.151Z,32.83
2018-08-03T09:51:08.806Z,32.93
2018-08-03T09:53:36.205Z,32.78
2018-08-03T09:56:03.670Z,33.32
2018-08-03T09:58:31.588Z,32.99
2018-08-03T10:01:05.384Z,32.04
2018-08-03T10:03:33.492Z,32.95
2018-08-03T10:06:00.976Z,33.52
2018-08-03T10:08:29.017Z,34.08
2018-08-03T10:10:57.532Z,33.92
2018-08-03T10:13:24.875Z,34.25
2018-08-03T10:15:52.174Z,34.05
2018-08-03T10:18:19.327Z,34.12
2018-08-03T10:20:46.504Z,34.38
2018-08-03T10:23:13.629Z,34.99
2018-08-03T10:25:40.769Z,35.25
2018-08-03T10:28:08.124Z,35.38
2018-08-03T10:30:35.516Z,35.25
2018-08-03T10:33:03.118Z,35.60
2018-08-03T10:35:31.181Z,35.03
2018-08-03T10:38:00.279Z,35.58
2018-08-03T10:40:27.701Z,35.61
2018-08-03T10:42:55.927Z,35.38
2018-08-03T10:45:23.776Z,35.51
2018-08-03T10:47:51.865Z,35.59
2018-08-03T10:50:19.918Z,35.49
2018-08-03T10:52:47.049Z,35.55
2018-08-03T10:55:14.176Z,36.27
2018-08-03T10:57:41.695Z,36.59
2018-08-03T11:00:09.621Z,35.47
2018-08-03T11:02:36.997Z,36.40
2018-08-03T11:05:04.697Z,37.00
2018-08-03T11:07:32.638Z,37.18
2018-08-03T11:10:00.733Z,36.83
2018-08-03T11:12:29.615Z,36.57
2018-08-03T11:14:58.455Z,36.48
2018-08-03T11:17:26.932Z,36.80
2018-08-03T11:19:56.149Z,37.15
2018-08-03T11:22:23.958Z,37.22
2018-08-03T11:24:51.347Z,37.52
2018-08-03T11:27:18.528Z,37.88
2018-08-03T11:29:45.786Z,37.76
2018-08-03T11:32:12.874Z,38.32
2018-08-03T11:34:40.376Z,38.10
2018-08-03T11:37:07.597Z,38.13
2018-08-03T11:39:35.336Z,38.57
2018-08-03T11:42:03.818Z,38.59
2018-08-03T11:44:31.753Z,38.85
2018-08-03T11:46:59.796Z,38.87
2018-08-03T11:49:27.929Z,38.20
2018-08-03T11:51:56.569Z,38.58
2018-08-03T11:54:24.835Z,37.07
2018-08-03T11:56:52.403Z,38.84
2018-08-03T11:59:19.744Z,37.77
2018-08-03T12:01:47.001Z,37.01
2018-08-03T12:04:14.131Z,37.38
2018-08-03T12:06:41.400Z,38.30
2018-08-03T12:09:08.877Z,38.40
2018-08-03T12:11:36.495Z,38.60
2018-08-03T12:14:04.411Z,38.48
2018-08-03T12:16:31.880Z,37.43
2018-08-03T12:18:59.780Z,36.69
2018-08-03T12:21:28.173Z,36.34
2018-08-03T12:23:56.705Z,35.97
2018-08-03T12:26:24.576Z,35.23
2018-08-03T12:28:51.789Z,35.08
2018-08-03T12:31:18.981Z,34.55
2018-08-03T12:33:46.232Z,34.80
2018-08-03T12:36:13.502Z,34.56
2018-08-03T12:38:40.680Z,34.60
2018-08-03T12:41:08.004Z,34.62
2018-08-03T12:43:36.281Z,34.23
2018-08-03T12:46:04.115Z,33.70
2018-08-03T12:48:31.737Z,33.65
2018-08-03T12:50:59.729Z,33.80
2018-08-03T12:53:27.860Z,33.46
2018-08-03T12:55:56.644Z,33.63
2018-08-03T12:58:24.601Z,33.49
2018-08-03T13:00:51.886Z,33.33
2018-08-03T13:03:19.172Z,33.54
2018-08-03T13:05:46.640Z,33.80
2018-08-03T13:08:14.066Z,33.90
2018-08-03T13:10:47.573Z,34.11
2018-08-03T13:13:14.953Z,34.07
2018-08-03T13:15:42.100Z,34.12
2018-08-03T13:18:09.364Z,33.63
2018-08-03T13:20:36.983Z,33.77
2018-08-03T13:23:04.775Z,33.74
2018-08-03T13:25:32.796Z,33.41
2018-08-03T13:28:00.914Z,32.92
2018-08-03T13:30:29.357Z,32.86
2018-08-03T13:32:58.403Z,33.01
2018-08-03T13:35:26.902Z,33.41
2018-08-03T13:37:55.913Z,33.48
2018-08-03T13:40:24.591Z,33.36
2018-08-03T13:42:51.904Z,33.13
2018-08-03T13:45:19.064Z,33.43
2018-08-03T13:47:46.292Z,33.72
2018-08-03T13:50:13.476Z,33.77
2018-08-03T13:52:40.631Z,33.88
2018-08-03T13:55:09.033Z,33.77
2018-08-03T13:57:37.140Z,33.97
2018-08-03T14:00:06.832Z,33.99
2018-08-03T14:02:34.330Z,34.06
2018-08-03T14:05:01.480Z,34.12
2018-08-03T14:07:28.663Z,34.33
2018-08-03T14:09:55.847Z,34.19
2018-08-03T14:12:23.101Z,34.29
2018-08-03T14:14:50.409Z,34.17
2018-08-03T14:17:17.603Z,34.00
2018-08-03T14:19:45.245Z,34.04
2018-08-03T14:22:13.367Z,34.18
2018-08-03T14:24:41.372Z,33.99
2018-08-03T14:27:09.293Z,33.77
2018-08-03T14:29:37.456Z,33.67
2018-08-03T14:32:05.710Z,33.56
2018-08-03T14:34:34.391Z,33.64
2018-08-03T14:37:01.588Z,33.24
2018-08-03T14:39:28.788Z,33.25
2018-08-03T14:41:56.045Z,33.47
2018-08-03T14:44:23.185Z,33.40
2018-08-03T14:46:50.383Z,33.58
2018-08-03T14:49:17.679Z,33.64
2018-08-03T14:51:45.293Z,33.84
2018-08-03T14:54:12.986Z,34.27
2018-08-03T14:56:40.682Z,34.57
2018-08-03T14:59:15.452Z,34.74
2018-08-03T15:01:43.233Z,34.87
2018-08-03T15:04:11.008Z,34.93
2018-08-03T15:06:39.137Z,34.96
2018-08-03T15:09:08.881Z,35.00
2018-08-03T15:11:38.912Z,34.31
2018-08-03T15:14:07.004Z,34.72
2018-08-03T15:16:34.836Z,34.99
2018-08-03T15:19:02.290Z,35.07
2018-08-03T15:21:29.416Z,34.94
2018-08-03T15:23:56.668Z,34.09
2018-08-03T15:26:24.222Z,34.54
2018-08-03T15:28:51.336Z,34.74
2018-08-03T15:31:18.584Z,34.93
2018-08-03T15:33:45.724Z,34.95
2018-08-03T15:36:12.880Z,34.67
2018-08-03T15:38:40.162Z,34.66
2018-08-03T15:41:07.980Z,34.53
2018-08-03T15:43:35.557Z,33.91
2018-08-03T15:46:03.461Z,34.17
2018-08-03T15:48:31.402Z,34.27
2018-08-03T15:50:59.178Z,34.20
2018-08-03T15:53:27.161Z,34.09
2018-08-03T15:55:54.291Z,34.20
2018-08-03T15:58:21.423Z,33.93
2018-08-03T16:00:48.594Z,33.56
2018-08-03T16:03:15.744Z,33.83
2018-08-03T16:05:42.912Z,33.50
2018-08-03T16:08:10.489Z,32.94
2018-08-03T16:10:38.130Z,32.55
2018-08-03T16:13:07.058Z,32.99
2018-08-03T16:15:35.886Z,33.05
2018-08-03T16:18:03.132Z,33.21
2018-08-03T16:20:30.307Z,33.25
2018-08-03T16:22:57.488Z,33.20
2018-08-03T16:25:24.617Z,33.22
2018-08-03T16:27:52.840Z,33.15
2018-08-03T16:30:20.247Z,32.94
2018-08-03T16:32:47.860Z,32.93
2018-08-03T16:35:15.540Z,32.74
2018-08-03T16:37:43.335Z,32.31
2018-08-03T16:40:11.176Z,32.36
2018-08-03T16:42:39.675Z,32.18
2018-08-03T16:45:08.831Z,32.16
2018-08-03T16:47:37.182Z,32.12
2018-08-03T16:50:06.825Z,32.03
2018-08-03T16:52:34.077Z,31.61
2018-08-03T16:55:01.321Z,31.51
2018-08-03T16:57:28.516Z,31.31
2018-08-03T16:59:55.798Z,31.28
2018-08-03T17:02:23.590Z,31.16
2018-08-03T17:04:51.370Z,30.65
2018-08-03T17:07:19.356Z,30.73
2018-08-03T17:09:48.529Z,30.66
2018-08-03T17:12:16.429Z,30.53
2018-08-03T17:14:44.769Z,30.40
2018-08-03T17:17:13.503Z,30.33
2018-08-03T17:19:40.932Z,30.22
2018-08-03T17:22:08.272Z,29.86
2018-08-03T17:24:35.454Z,29.76
2018-08-03T17:27:02.636Z,29.81
2018-08-03T17:29:29.795Z,29.79
2018-08-03T17:31:57.065Z,29.55
2018-08-03T17:34:24.644Z,29.42
2018-08-03T17:36:52.468Z,29.42
2018-08-03T17:39:20.334Z,29.39
2018-08-03T17:41:48.350Z,29.32
2018-08-03T17:44:16.930Z,29.21
2018-08-03T17:46:45.784Z,29.10
2018-08-03T17:49:14.560Z,28.99
2018-08-03T17:51:42.888Z,28.87
2018-08-03T17:54:12.779Z,28.74
2018-08-03T17:56:40.069Z,28.63
2018-08-03T17:59:07.367Z,28.51
2018-08-03T18:01:34.519Z,28.36
2018-08-03T18:04:01.825Z,28.25
2018-08-03T18:06:29.043Z,28.15
2018-08-03T18:08:56.434Z,28.08
2018-08-03T18:11:24.154Z,27.95
2018-08-03T18:13:51.678Z,27.87
2018-08-03T18:16:19.408Z,27.73
2018-08-03T18:18:47.443Z,27.62
2018-08-03T18:21:16.849Z,27.47
2018-08-03T18:23:45.333Z,27.35
2018-08-03T18:26:13.561Z,27.21
2018-08-03T18:28:44.375Z,27.06
2018-08-03T18:31:11.856Z,26.92
2018-08-03T18:33:39.278Z,26.78
2018-08-03T18:36:06.433Z,26.63
2018-08-03T18:38:33.605Z,26.52
2018-08-03T18:41:00.784Z,26.46
2018-08-03T18:43:27.936Z,26.40
2018-08-03T18:45:56.204Z,26.36
2018-08-03T18:48:23.874Z,26.29
2018-08-03T18:50:51.552Z,26.20
2018-08-03T18:53:19.557Z,26.09
2018-08-03T18:55:47.738Z,25.96
2018-08-03T18:58:16.917Z,25.90
2018-08-03T19:00:45.388Z,25.81
2018-08-03T19:03:13.940Z,25.67
2018-08-03T19:05:41.118Z,25.64
2018-08-03T19:08:08.386Z,25.56
2018-08-03T19:10:35.600Z,25.45
2018-08-03T19:13:02.859Z,25.36
2018-08-03T19:15:30.040Z,25.32
2018-08-03T19:17:57.233Z,25.23
2018-08-03T19:20:24.661Z,25.19
2018-08-03T19:22:52.322Z,25.13
2018-08-03T19:25:20.356Z,25.02
2018-08-03T19:27:48.221Z,24.94
2018-08-03T19:30:16.517Z,24.85
2018-08-03T19:32:44.485Z,24.82
2018-08-03T19:35:12.431Z,24.71
2018-08-03T19:37:39.689Z,24.67
2018-08-03T19:40:07.193Z,24.60
2018-08-03T19:42:34.376Z,24.52
2018-08-03T19:45:01.556Z,24.43
2018-08-03T19:47:28.816Z,24.36
2018-08-03T19:49:56.541Z,24.25
2018-08-03T19:52:24.193Z,24.18
2018-08-03T19:54:51.722Z,24.09
2018-08-03T19:57:19.428Z,24.00
2018-08-03T19:59:47.450Z,23.92
2018-08-03T20:02:16.840Z,23.84
2018-08-03T20:04:45.457Z,23.74
2018-08-03T20:07:13.294Z,23.75
2018-08-03T20:09:40.563Z,23.70
2018-08-03T20:12:07.821Z,23.63
2018-08-03T20:14:35.724Z,23.55
2018-08-03T20:17:03.316Z,23.50
2018-08-03T20:19:31.255Z,23.44
2018-08-03T20:21:58.868Z,23.42
2018-08-03T20:24:26.120Z,23.37
2018-08-03T20:26:53.728Z,23.31
2018-08-03T20:29:21.767Z,23.25
2018-08-03T20:31:49.618Z,23.20
2018-08-03T20:34:17.389Z,23.18
2018-08-03T20:36:45.210Z,23.12
2018-08-03T20:39:12.876Z,23.05
2018-08-03T20:41:40.183Z,22.99
2018-08-03T20:44:07.464Z,22.97
2018-08-03T20:46:35.265Z,22.92
2018-08-03T20:49:03.274Z,22.90
2018-08-03T20:51:30.519Z,22.83
2018-08-03T20:53:58.013Z,22.82
2018-08-03T20:56:25.318Z,22.75
2018-08-03T20:58:53.106Z,22.69
2018-08-03T21:01:21.204Z,22.68
2018-08-03T21:03:49.029Z,22.64
2018-08-03T21:06:16.913Z,22.64
2018-08-03T21:08:44.642Z,22.62
2018-08-03T21:11:12.878Z,22.61
2018-08-03T21:13:40.187Z,22.58
2018-08-03T21:16:07.330Z,22.56
2018-08-03T21:18:34.570Z,22.51
2018-08-03T21:21:01.857Z,22.46
2018-08-03T21:23:29.201Z,22.41
2018-08-03T21:25:56.396Z,22.35
2018-08-03T21:28:24.001Z,22.31
2018-08-03T21:30:51.581Z,22.25
2018-08-03T21:33:19.039Z,22.22
2018-08-03T21:35:47.779Z,22.17
2018-08-03T21:38:15.881Z,22.13
2018-08-03T21:40:44.042Z,22.10
2018-08-03T21:43:11.548Z,22.04
2018-08-03T21:45:38.741Z,22.01
2018-08-03T21:48:05.964Z,21.99
2018-08-03T21:50:34.117Z,21.96
2018-08-03T21:53:01.784Z,21.93
2018-08-03T21:55:30.163Z,21.89
2018-08-03T21:57:57.658Z,21.85
2018-08-03T22:00:25.028Z,21.83
2018-08-03T22:02:52.617Z,21.78
2018-08-03T22:05:19.825Z,21.77
2018-08-03T22:07:48.016Z,21.73
2018-08-03T22:10:15.691Z,21.72
2018-08-03T22:12:43.538Z,21.68
2018-08-03T22:15:15.675Z,21.68
2018-08-03T22:17:42.931Z,21.64
2018-08-03T22:20:10.079Z,21.62
2018-08-03T22:22:37.374Z,21.63
2018-08-03T22:25:05.272Z,21.63
2018-08-03T22:27:32.775Z,21.61
2018-08-03T22:30:00.767Z,21.61
2018-08-03T22:32:28.308Z,21.60
2018-08-03T22:34:55.886Z,21.50
2018-08-03T22:37:23.402Z,21.56
2018-08-03T22:39:51.223Z,21.66
2018-08-03T22:42:19.228Z,21.69
2018-08-03T22:44:46.530Z,21.70
2018-08-03T22:47:14.305Z,21.71
2018-08-03T22:49:41.471Z,21.77
2018-08-03T22:52:09.129Z,21.80
2018-08-03T22:54:36.268Z,21.79
2018-08-03T22:57:03.712Z,21.78
2018-08-03T22:59:31.424Z,21.79
2018-08-03T23:01:59.749Z,21.78
2018-08-03T23:04:28.182Z,21.76
2018-08-03T23:06:56.215Z,21.73
2018-08-03T23:09:23.634Z,21.68
2018-08-03T23:11:51.288Z,21.64
2018-08-03T23:14:18.919Z,21.58
2018-08-03T23:16:46.670Z,21.54
2018-08-03T23:19:14.324Z,21.51
2018-08-03T23:21:41.948Z,21.47
2018-08-03T23:24:09.185Z,21.43
2018-08-03T23:26:36.296Z,21.34
2018-08-03T23:29:03.952Z,21.29
2018-08-03T23:31:31.109Z,21.26
2018-08-03T23:34:00.666Z,21.21
2018-08-03T23:36:28.256Z,21.17
2018-08-03T23:38:55.863Z,21.13
2018-08-03T23:41:23.347Z,21.09
2018-08-03T23:43:51.250Z,21.06
2018-08-03T23:46:19.104Z,21.05
2018-08-03T23:48:49.005Z,21.02
2018-08-03T23:51:17.898Z,21.04
2018-08-03T23:53:45.946Z,21.02
2018-08-03T23:56:14.072Z,20.99
2018-08-03T23:58:43.620Z,20.88
